Jessica S. Settoon — WDD9545 — position and weather

sailwx.info

Track history (hours):
 
Tides and Currents Weather Stations Pressure Air Temp Water Temp Dewpoint Dewpoint Depression Visibility Wind Speed Wind Dir Waves Ship Positions

Jessica S. Settoon

Owner: Settoon Towing LLC, Houma, LA. More information available from US FCC via Universal Licensing System and Coast Guard Vessel Documentation Center.

Last reported at 2015-Feb-01 05:33 UTC. Time now 2015-Feb-01 05:41 UTC.
Position N 29°46' W 091°11'.

Length 17 m; draft 3 m.

Type: Tug. MMSI: 367312940.

Date/timePositionNaut miles runAvg speedWind from/ knotsBaromVisibWave heightAir tempDewpointWater temp
2015-Feb-01 05:33N 29°46' W 091°11'0 0.0
2015-Feb-01 04:33N 29°46' W 091°11'0 0.0
2015-Feb-01 03:33N 29°46' W 091°11'0 0.0
2015-Feb-01 02:33N 29°46' W 091°11'0 0.0
2015-Feb-01 01:33N 29°46' W 091°11'0 0.0
2015-Feb-01 00:33N 29°46' W 091°11'0 0.0
2015-Jan-31 23:33N 29°46' W 091°11'0 0.0
2015-Jan-31 22:33N 29°46' W 091°11'0 0.0
2015-Jan-31 21:33N 29°46' W 091°11'0 0.0
2015-Jan-31 20:33N 29°46' W 091°11'0 0.0
2015-Jan-31 19:33N 29°46' W 091°11'0 0.2
2015-Jan-31 18:32N 29°46' W 091°11'4 4.5
2015-Jan-31 17:33N 29°41' W 091°12'3 2.6
2015-Jan-31 16:33N 29°41' W 091°09'6 5.8
2015-Jan-31 15:33N 29°37' W 091°04'6 5.6
2015-Jan-31 14:33N 29°38' W 090°58'1 0.0
2015-Jan-30 07:33N 29°38' W 090°56'0 0.1
2015-Jan-30 06:32N 29°38' W 090°56'0 0.0
2015-Jan-30 05:25N 29°38' W 090°56'3 2.8
2015-Jan-30 04:31N 29°37' W 090°59'6 6.4
2015-Jan-30 03:33N 29°38' W 091°05'5 5.3
2015-Jan-30 02:33N 29°41' W 091°11'3 3.4
2015-Jan-30 01:33N 29°44' W 091°11'5 4.7
2015-Jan-30 00:33N 29°49' W 091°12'3 2.5
2015-Jan-29 23:33N 29°48' W 091°15'4 3.7
2015-Jan-29 22:33N 29°47' W 091°19'0 0.3
2015-Jan-29 21:29N 29°47' W 091°19'0 0.0
2015-Jan-29 20:33N 29°47' W 091°19'0 0.0
2015-Jan-29 19:33N 29°47' W 091°19'0 0.0
2015-Jan-29 18:32N 29°47' W 091°19'0 0.0
2015-Jan-29 17:25N 29°47' W 091°19'0 0.0
2015-Jan-29 09:23N 29°47' W 091°19'8 0.6
2015-Jan-28 20:10N 29°46' W 091°11'0 0.0
2015-Jan-28 19:33N 29°46' W 091°11'0 0.0
2015-Jan-28 18:32N 29°46' W 091°11'0 0.0
2015-Jan-28 17:33N 29°46' W 091°11'0 0.0
2015-Jan-28 15:32N 29°46' W 091°11'0 0.0
2015-Jan-28 14:33N 29°46' W 091°11'0 0.0
2015-Jan-28 13:33N 29°46' W 091°11'0 0.0
2015-Jan-28 12:33N 29°46' W 091°11'0 0.0
2015-Jan-28 11:33N 29°46' W 091°11'0 0.0
2015-Jan-28 10:33N 29°46' W 091°11'0 0.0
2015-Jan-28 09:33N 29°46' W 091°11'0 0.0
2015-Jan-28 08:33N 29°46' W 091°11'0 0.0
2015-Jan-28 07:33N 29°46' W 091°11'0 0.0
2015-Jan-28 06:33N 29°46' W 091°11'0 0.0
2015-Jan-28 05:33N 29°46' W 091°11'0 0.0
2015-Jan-28 04:33N 29°46' W 091°11'0 0.0
2015-Jan-28 03:33N 29°46' W 091°11'0 0.0
2015-Jan-28 02:33N 29°46' W 091°11'0 0.0
2015-Jan-28 01:33N 29°46' W 091°11'0 0.0
2015-Jan-28 00:33N 29°46' W 091°11'0 0.0
2015-Jan-27 23:04N 29°46' W 091°11'0 0.0
2015-Jan-27 22:26N 29°46' W 091°11'0 0.0
2015-Jan-27 21:32N 29°46' W 091°11'0 0.0
2015-Jan-27 20:19N 29°46' W 091°11'1 1.9
2015-Jan-27 19:33N 29°44' W 091°11'3 3.3
2015-Jan-27 18:33N 29°41' W 091°11'2 2.4
2015-Jan-27 17:33N 29°40' W 091°08'2 2.0
2015-Jan-27 16:33N 29°40' W 091°06'1 0.6
2015-Jan-27 15:33N 29°39' W 091°06'6 5.8
2015-Jan-27 14:30N 29°37' W 090°59'3 0.3
2015-Jan-27 05:27N 29°38' W 090°56'0 0.0
2015-Jan-27 04:33N 29°38' W 090°56'0 0.0
2015-Jan-27 03:33N 29°38' W 090°56'3 2.5
2015-Jan-27 02:32N 29°37' W 090°59'6 6.0
2015-Jan-27 01:33N 29°38' W 091°05'6 5.7
2015-Jan-27 00:33N 29°41' W 091°11'3 2.8
2015-Jan-26 23:33N 29°43' W 091°13'5 2.2
2015-Jan-26 21:18N 29°48' W 091°14'5 2.6
2015-Jan-26 19:33N 29°47' W 091°19'0 0.0
2015-Jan-26 18:12N 29°47' W 091°19'0 0.0
2015-Jan-26 17:26N 29°47' W 091°19'0 0.0
2015-Jan-26 16:32N 29°47' W 091°19'0 0.0
2015-Jan-26 15:20N 29°47' W 091°19'0 0.0
2015-Jan-26 14:33N 29°47' W 091°19'0 0.0
2015-Jan-26 13:33N 29°47' W 091°19'0 0.0
2015-Jan-26 12:33N 29°47' W 091°19'0 0.0
2015-Jan-26 11:33N 29°47' W 091°19'0 0.0
2015-Jan-26 10:30N 29°47' W 091°19'0 0.0
2015-Jan-26 09:33N 29°47' W 091°19'0 0.0
2015-Jan-26 08:30N 29°47' W 091°19'0 0.0
2015-Jan-26 07:29N 29°47' W 091°19'0 0.0
2015-Jan-26 06:32N 29°47' W 091°19'0 0.0
2015-Jan-26 05:27N 29°47' W 091°19'0 0.0
2015-Jan-26 04:33N 29°47' W 091°19'0 0.0
2015-Jan-26 03:31N 29°47' W 091°19'0 0.0
2015-Jan-26 02:21N 29°47' W 091°19'0 0.0
2015-Jan-26 01:04N 29°47' W 091°19'0 0.0
2015-Jan-25 23:10N 29°47' W 091°19'1 2.1
2015-Jan-25 22:29N 29°47' W 091°18'3 3.6
2015-Jan-25 21:33N 29°48' W 091°14'3 3.0
2015-Jan-25 20:31N 29°48' W 091°11'4 3.8
2015-Jan-25 19:33N 29°44' W 091°11'3 3.2
2015-Jan-25 18:33N 29°41' W 091°11'5 5.4
2015-Jan-25 17:33N 29°38' W 091°05'6 5.2
2015-Jan-25 16:25N 29°37' W 090°59'2 0.1
2015-Jan-24 08:05N 29°38' W 090°56'3 0.7
2015-Jan-24 04:12N 29°37' W 090°59'4 6.2
2015-Jan-24 03:31N 29°37' W 091°04'6 6.1
2015-Jan-24 02:33N 29°41' W 091°09'4 3.8
2015-Jan-24 01:33N 29°42' W 091°13'2 1.6
2015-Jan-24 00:33N 29°44' W 091°12'4 3.7
2015-Jan-23 23:33N 29°47' W 091°11'3 3.1
2015-Jan-23 22:33N 29°48' W 091°14'2 1.9
2015-Jan-23 21:29N 29°48' W 091°16'3 3.2
2015-Jan-23 20:33N 29°47' W 091°19'0 0.0
2015-Jan-23 19:33N 29°47' W 091°19'0 0.0
2015-Jan-23 18:33N 29°47' W 091°19'0 0.0
2015-Jan-23 17:33N 29°47' W 091°19'0 0.0
2015-Jan-23 16:33N 29°47' W 091°19'0 0.0
2015-Jan-23 15:33N 29°47' W 091°19'0 0.0
2015-Jan-23 14:32N 29°47' W 091°19'0 0.0
2015-Jan-23 13:33N 29°47' W 091°19'0 0.0
2015-Jan-23 12:33N 29°47' W 091°19'0 0.0
2015-Jan-23 11:33N 29°47' W 091°19'0 0.0
2015-Jan-23 10:33N 29°47' W 091°19'0 0.0
2015-Jan-23 09:33N 29°47' W 091°19'0 0.0
2015-Jan-23 08:33N 29°47' W 091°19'0 0.0
2015-Jan-23 07:33N 29°47' W 091°19'0 0.0
2015-Jan-23 06:33N 29°47' W 091°19'0 0.0
2015-Jan-23 05:28N 29°47' W 091°19'0 0.0
2015-Jan-23 04:33N 29°47' W 091°19'0 0.0
2015-Jan-23 03:29N 29°47' W 091°19'0 0.0
2015-Jan-23 02:31N 29°47' W 091°19'0 0.0
2015-Jan-23 01:25N 29°47' W 091°19'0 0.0
2015-Jan-23 00:33N 29°47' W 091°19'0 0.0
2015-Jan-22 23:33N 29°47' W 091°19'0 0.0
2015-Jan-22 22:22N 29°47' W 091°19'0 0.1
2015-Jan-22 21:33N 29°47' W 091°19'3 3.3
2015-Jan-22 20:33N 29°48' W 091°16'3 2.5
2015-Jan-22 19:31N 29°49' W 091°13'3 3.0
2015-Jan-22 18:33N 29°46' W 091°11'4 4.1
2015-Jan-22 17:33N 29°43' W 091°13'3 3.4
2015-Jan-22 16:33N 29°41' W 091°10'6 5.6
2015-Jan-22 15:33N 29°38' W 091°05'5 5.2
2015-Jan-22 14:33N 29°37' W 090°59'  
Track history (hours):
 
Tides and Currents Weather Stations Pressure Air Temp Water Temp Dewpoint Dewpoint Depression Visibility Wind Speed Wind Dir Waves Ship Positions

Jessica S. Settoon

Owner: Settoon Towing LLC, Houma, LA. More information available from US FCC via Universal Licensing System and Coast Guard Vessel Documentation Center.

Last reported at 2015-Feb-01 05:33 UTC. Time now 2015-Feb-01 05:41 UTC.
Position N 29°46' W 091°11'.

Length 17 m; draft 3 m.

Type: Tug. MMSI: 367312940.

Date/timePositionNaut miles runAvg speedWind from/ knotsBaromVisibWave heightAir tempDewpointWater temp
2015-Feb-01 05:33N 29°46' W 091°11'0 0.0
2015-Feb-01 04:33N 29°46' W 091°11'0 0.0
2015-Feb-01 03:33N 29°46' W 091°11'0 0.0
2015-Feb-01 02:33N 29°46' W 091°11'0 0.0
2015-Feb-01 01:33N 29°46' W 091°11'0 0.0
2015-Feb-01 00:33N 29°46' W 091°11'0 0.0
2015-Jan-31 23:33N 29°46' W 091°11'0 0.0
2015-Jan-31 22:33N 29°46' W 091°11'0 0.0
2015-Jan-31 21:33N 29°46' W 091°11'0 0.0
2015-Jan-31 20:33N 29°46' W 091°11'0 0.0
2015-Jan-31 19:33N 29°46' W 091°11'0 0.2
2015-Jan-31 18:32N 29°46' W 091°11'4 4.5
2015-Jan-31 17:33N 29°41' W 091°12'3 2.6
2015-Jan-31 16:33N 29°41' W 091°09'6 5.8
2015-Jan-31 15:33N 29°37' W 091°04'6 5.6
2015-Jan-31 14:33N 29°38' W 090°58'1 0.0
2015-Jan-30 07:33N 29°38' W 090°56'0 0.1
2015-Jan-30 06:32N 29°38' W 090°56'0 0.0
2015-Jan-30 05:25N 29°38' W 090°56'3 2.8
2015-Jan-30 04:31N 29°37' W 090°59'6 6.4
2015-Jan-30 03:33N 29°38' W 091°05'5 5.3
2015-Jan-30 02:33N 29°41' W 091°11'3 3.4
2015-Jan-30 01:33N 29°44' W 091°11'5 4.7
2015-Jan-30 00:33N 29°49' W 091°12'3 2.5
2015-Jan-29 23:33N 29°48' W 091°15'4 3.7
2015-Jan-29 22:33N 29°47' W 091°19'0 0.3
2015-Jan-29 21:29N 29°47' W 091°19'0 0.0
2015-Jan-29 20:33N 29°47' W 091°19'0 0.0
2015-Jan-29 19:33N 29°47' W 091°19'0 0.0
2015-Jan-29 18:32N 29°47' W 091°19'0 0.0
2015-Jan-29 17:25N 29°47' W 091°19'0 0.0
2015-Jan-29 09:23N 29°47' W 091°19'8 0.6
2015-Jan-28 20:10N 29°46' W 091°11'0 0.0
2015-Jan-28 19:33N 29°46' W 091°11'0 0.0
2015-Jan-28 18:32N 29°46' W 091°11'0 0.0
2015-Jan-28 17:33N 29°46' W 091°11'0 0.0
2015-Jan-28 15:32N 29°46' W 091°11'0 0.0
2015-Jan-28 14:33N 29°46' W 091°11'0 0.0
2015-Jan-28 13:33N 29°46' W 091°11'0 0.0
2015-Jan-28 12:33N 29°46' W 091°11'0 0.0
2015-Jan-28 11:33N 29°46' W 091°11'0 0.0
2015-Jan-28 10:33N 29°46' W 091°11'0 0.0
2015-Jan-28 09:33N 29°46' W 091°11'0 0.0
2015-Jan-28 08:33N 29°46' W 091°11'0 0.0
2015-Jan-28 07:33N 29°46' W 091°11'0 0.0
2015-Jan-28 06:33N 29°46' W 091°11'0 0.0
2015-Jan-28 05:33N 29°46' W 091°11'0 0.0
2015-Jan-28 04:33N 29°46' W 091°11'0 0.0
2015-Jan-28 03:33N 29°46' W 091°11'0 0.0
2015-Jan-28 02:33N 29°46' W 091°11'0 0.0
2015-Jan-28 01:33N 29°46' W 091°11'0 0.0
2015-Jan-28 00:33N 29°46' W 091°11'0 0.0
2015-Jan-27 23:04N 29°46' W 091°11'0 0.0
2015-Jan-27 22:26N 29°46' W 091°11'0 0.0
2015-Jan-27 21:32N 29°46' W 091°11'0 0.0
2015-Jan-27 20:19N 29°46' W 091°11'1 1.9
2015-Jan-27 19:33N 29°44' W 091°11'3 3.3
2015-Jan-27 18:33N 29°41' W 091°11'2 2.4
2015-Jan-27 17:33N 29°40' W 091°08'2 2.0
2015-Jan-27 16:33N 29°40' W 091°06'1 0.6
2015-Jan-27 15:33N 29°39' W 091°06'6 5.8
2015-Jan-27 14:30N 29°37' W 090°59'3 0.3
2015-Jan-27 05:27N 29°38' W 090°56'0 0.0
2015-Jan-27 04:33N 29°38' W 090°56'0 0.0
2015-Jan-27 03:33N 29°38' W 090°56'3 2.5
2015-Jan-27 02:32N 29°37' W 090°59'6 6.0
2015-Jan-27 01:33N 29°38' W 091°05'6 5.7
2015-Jan-27 00:33N 29°41' W 091°11'3 2.8
2015-Jan-26 23:33N 29°43' W 091°13'5 2.2
2015-Jan-26 21:18N 29°48' W 091°14'5 2.6
2015-Jan-26 19:33N 29°47' W 091°19'0 0.0
2015-Jan-26 18:12N 29°47' W 091°19'0 0.0
2015-Jan-26 17:26N 29°47' W 091°19'0 0.0
2015-Jan-26 16:32N 29°47' W 091°19'0 0.0
2015-Jan-26 15:20N 29°47' W 091°19'0 0.0
2015-Jan-26 14:33N 29°47' W 091°19'0 0.0
2015-Jan-26 13:33N 29°47' W 091°19'0 0.0
2015-Jan-26 12:33N 29°47' W 091°19'0 0.0
2015-Jan-26 11:33N 29°47' W 091°19'0 0.0
2015-Jan-26 10:30N 29°47' W 091°19'0 0.0
2015-Jan-26 09:33N 29°47' W 091°19'0 0.0
2015-Jan-26 08:30N 29°47' W 091°19'0 0.0
2015-Jan-26 07:29N 29°47' W 091°19'0 0.0
2015-Jan-26 06:32N 29°47' W 091°19'0 0.0
2015-Jan-26 05:27N 29°47' W 091°19'0 0.0
2015-Jan-26 04:33N 29°47' W 091°19'0 0.0
2015-Jan-26 03:31N 29°47' W 091°19'0 0.0
2015-Jan-26 02:21N 29°47' W 091°19'0 0.0
2015-Jan-26 01:04N 29°47' W 091°19'0 0.0
2015-Jan-25 23:10N 29°47' W 091°19'1 2.1
2015-Jan-25 22:29N 29°47' W 091°18'3 3.6
2015-Jan-25 21:33N 29°48' W 091°14'3 3.0
2015-Jan-25 20:31N 29°48' W 091°11'4 3.8
2015-Jan-25 19:33N 29°44' W 091°11'3 3.2
2015-Jan-25 18:33N 29°41' W 091°11'5 5.4
2015-Jan-25 17:33N 29°38' W 091°05'6 5.2
2015-Jan-25 16:25N 29°37' W 090°59'2 0.1
2015-Jan-24 08:05N 29°38' W 090°56'3 0.7
2015-Jan-24 04:12N 29°37' W 090°59'4 6.2
2015-Jan-24 03:31N 29°37' W 091°04'6 6.1
2015-Jan-24 02:33N 29°41' W 091°09'4 3.8
2015-Jan-24 01:33N 29°42' W 091°13'2 1.6
2015-Jan-24 00:33N 29°44' W 091°12'4 3.7
2015-Jan-23 23:33N 29°47' W 091°11'3 3.1
2015-Jan-23 22:33N 29°48' W 091°14'2 1.9
2015-Jan-23 21:29N 29°48' W 091°16'3 3.2
2015-Jan-23 20:33N 29°47' W 091°19'0 0.0
2015-Jan-23 19:33N 29°47' W 091°19'0 0.0
2015-Jan-23 18:33N 29°47' W 091°19'0 0.0
2015-Jan-23 17:33N 29°47' W 091°19'0 0.0
2015-Jan-23 16:33N 29°47' W 091°19'0 0.0
2015-Jan-23 15:33N 29°47' W 091°19'0 0.0
2015-Jan-23 14:32N 29°47' W 091°19'0 0.0
2015-Jan-23 13:33N 29°47' W 091°19'0 0.0
2015-Jan-23 12:33N 29°47' W 091°19'0 0.0
2015-Jan-23 11:33N 29°47' W 091°19'0 0.0
2015-Jan-23 10:33N 29°47' W 091°19'0 0.0
2015-Jan-23 09:33N 29°47' W 091°19'0 0.0
2015-Jan-23 08:33N 29°47' W 091°19'0 0.0
2015-Jan-23 07:33N 29°47' W 091°19'0 0.0
2015-Jan-23 06:33N 29°47' W 091°19'0 0.0
2015-Jan-23 05:28N 29°47' W 091°19'0 0.0
2015-Jan-23 04:33N 29°47' W 091°19'0 0.0
2015-Jan-23 03:29N 29°47' W 091°19'0 0.0
2015-Jan-23 02:31N 29°47' W 091°19'0 0.0
2015-Jan-23 01:25N 29°47' W 091°19'0 0.0
2015-Jan-23 00:33N 29°47' W 091°19'0 0.0
2015-Jan-22 23:33N 29°47' W 091°19'0 0.0
2015-Jan-22 22:22N 29°47' W 091°19'0 0.1
2015-Jan-22 21:33N 29°47' W 091°19'3 3.3
2015-Jan-22 20:33N 29°48' W 091°16'3 2.5
2015-Jan-22 19:31N 29°49' W 091°13'3 3.0
2015-Jan-22 18:33N 29°46' W 091°11'4 4.1
2015-Jan-22 17:33N 29°43' W 091°13'3 3.4
2015-Jan-22 16:33N 29°41' W 091°10'6 5.6
2015-Jan-22 15:33N 29°38' W 091°05'5 5.2
2015-Jan-22 14:33N 29°37' W 090°59'  

Dump ship's entire track history